Home   Weather   USA   Vicksburg   Past weeks
Flag for USA

Past Weather in Vicksburg, Mississippi, USA — Yesterday and Last 2 Weeks

Currently: 82 °F. Sunny. (Weather station: Vicksburg Municipal, USA). See more current weather

Past Weather in Vicksburg — Graph

°F

Vicksburg Temperature Yesterday

Maximum temperature yesterday: 86 °F (at 1:55 pm)
Minimum temperature yesterday: 66 °F (at 4:55 am)
Average temperature yesterday: 77 °F

High & Low Weather Summary for the Past Weeks

 TemperatureHumidityPressure
High91 °F (Jun 8, 4:55 pm)100% (May 28, 11:35 pm)30.14 "Hg (May 28, 11:35 pm)
Low61 °F (Jun 8, 4:35 am)41% (Jun 8, 1:55 pm)29.71 "Hg (Jun 5, 5:35 pm)
Average77 °F82%29.91 "Hg
* Reported May 28 12:55 pm — Jun 12 12:55 pm, Vicksburg. Weather by CustomWeather, © 2024

Note: Actual official high and low records may vary slightly from our data, if they occured in-between our weather recording intervals... More about our weather records

Vicksburg Weather History for the Previous 24 Hours

Scroll right to see more
 ConditionsComfort  
Time TempWeatherWind HumidityBarometerVisibility
12:55 pm
Wed, Jun 12
81 °FSunny.9 mph48%29.99 "Hg10 mi
12:15 pm79 °FSunny.6 mph54%30.00 "Hg10 mi
11:55 am79 °FSunny.7 mph54%30.00 "Hg10 mi
11:35 am79 °FSunny.7 mph54%30.00 "Hg10 mi
11:15 am79 °FSunny.No wind51%30.00 "Hg10 mi
10:55 am79 °FSunny.No wind51%30.00 "Hg10 mi
10:35 am81 °FSunny.5 mph45%30.00 "Hg10 mi
10:15 am79 °FSunny.7 mph51%29.99 "Hg10 mi
9:55 am79 °FSunny.5 mph51%30.00 "Hg10 mi
9:15 am75 °FSunny.3 mph61%29.99 "Hg10 mi
8:35 am73 °FSunny.No wind65%29.99 "Hg10 mi
8:15 am72 °FSunny.No wind69%29.99 "Hg10 mi
7:55 am73 °FSunny.No wind69%29.98 "Hg10 mi
7:35 am70 °FSunny.No wind83%29.98 "Hg10 mi
6:15 am64 °FSunny.No wind100%29.96 "Hg10 mi
5:55 am64 °FClear.No wind100%29.96 "Hg10 mi
5:35 am64 °FClear.No wind100%29.96 "Hg10 mi
5:15 am64 °FPassing clouds.No wind100%29.95 "Hg10 mi
4:55 am64 °FClear.No wind100%29.95 "Hg10 mi
4:35 am64 °FClear.No wind100%29.94 "Hg10 mi
4:15 am66 °FClear.No wind94%29.94 "Hg10 mi
3:55 am68 °FClear.No wind83%29.93 "Hg10 mi
3:15 am70 °FPassing clouds.No wind78%29.93 "Hg10 mi
2:35 am68 °FClear.No wind88%29.92 "Hg10 mi
1:55 am66 °FClear.No wind94%29.93 "Hg10 mi
1:35 am66 °FClear.No wind100%29.93 "Hg10 mi
1:15 am66 °FClear.No wind100%29.94 "Hg10 mi
12:55 am66 °FClear.No wind100%29.94 "Hg10 mi
12:35 am66 °FClear.No wind100%29.94 "Hg10 mi
12:15 am66 °FClear.No wind100%29.95 "Hg10 mi
11:55 pm
Tue, Jun 11
68 °FClear.No wind94%29.94 "Hg10 mi
11:35 pm66 °FClear.No wind100%29.94 "Hg10 mi
10:55 pm70 °FClear.No wind88%29.94 "Hg10 mi
10:35 pm70 °FClear.No wind88%29.94 "Hg10 mi
9:55 pm73 °FClear.No wind74%29.93 "Hg10 mi
9:15 pm77 °FClear.5 mph61%29.91 "Hg10 mi
8:55 pm77 °FClear.5 mph61%29.91 "Hg10 mi
8:15 pm77 °FClear.6 mph61%29.90 "Hg10 mi
7:55 pm79 °FSunny.5 mph54%29.90 "Hg10 mi
7:35 pm79 °FSunny.3 mph58%29.89 "Hg10 mi
7:15 pm81 °FSunny.6 mph51%29.89 "Hg10 mi
6:55 pm82 °FSunny.7 mph48%29.88 "Hg10 mi
6:35 pm82 °FSunny.7 mph51%29.88 "Hg10 mi
6:15 pm84 °FSunny.10 mph45%29.87 "Hg10 mi
5:35 pm84 °FSunny.10 mph48%29.88 "Hg10 mi
4:55 pm84 °FSunny.10 mph45%29.88 "Hg10 mi
4:35 pm86 °FSunny.10 mph43%29.88 "Hg10 mi
4:15 pm86 °FSunny.9 mph46%29.89 "Hg10 mi
3:55 pm86 °FSunny.14 mph43%29.89 "Hg10 mi
3:35 pm86 °FSunny.13 mph43%29.90 "Hg10 mi
2:35 pm86 °FSunny.12 mph43%29.91 "Hg10 mi
2:15 pm86 °FSunny.7 mph46%29.91 "Hg10 mi
Weather by CustomWeather, © 2024

See weather overview